createdAt,value
2022-09-27T00:03:58.756Z,99299.47
2022-09-27T00:09:00.517Z,99305.44
2022-09-27T00:14:10.959Z,99310.56
2022-09-27T00:19:16.399Z,99317.34
2022-09-27T00:24:23.286Z,99311.78
2022-09-27T00:29:25.143Z,99311.78
2022-09-27T00:34:29.163Z,99313.84
2022-09-27T00:39:31.002Z,99310.31
2022-09-27T00:44:38.603Z,99305.81
2022-09-27T00:49:51.990Z,99297.41
2022-09-27T00:54:59.436Z,99295.34
2022-09-27T01:00:05.300Z,99303.16
2022-09-27T01:05:11.848Z,99302.31
2022-09-27T01:10:18.636Z,99284.63
2022-09-27T01:15:26.219Z,99292.44
2022-09-27T01:20:52.293Z,99288.94
2022-09-27T01:26:06.269Z,99279.06
2022-09-27T01:31:15.461Z,99287.31
2022-09-27T01:36:42.468Z,99269.63
2022-09-27T01:42:03.076Z,99287.53
2022-09-27T01:47:20.859Z,99281.56
2022-09-27T01:52:40.478Z,99287.97
2022-09-27T01:57:53.785Z,99268.44
2022-09-27T02:03:04.118Z,99272.13
2022-09-27T02:08:14.517Z,99274.22
2022-09-27T02:13:26.702Z,99266.63
2022-09-27T02:19:02.494Z,99262.53
2022-09-27T02:24:11.386Z,99266.44
2022-09-27T02:29:21.182Z,99267.50
2022-09-27T02:34:29.788Z,99262.94
2022-09-27T02:39:35.201Z,99270.63
2022-09-27T02:44:43.032Z,99271.84
2022-09-27T02:50:25.723Z,99286.25
2022-09-27T02:56:26.897Z,99283.13
2022-09-27T03:02:13.347Z,99278.41
2022-09-27T03:07:40.948Z,99279.66
2022-09-27T03:12:48.154Z,99280.31
2022-09-27T03:17:50.266Z,99275.78
2022-09-27T03:23:11.597Z,99276.84
2022-09-27T03:28:15.914Z,99275.63
2022-09-27T03:33:27.056Z,99284.66
2022-09-27T03:38:35.065Z,99278.56
2022-09-27T03:43:40.024Z,99278.19
2022-09-27T03:48:42.673Z,99273.44
2022-09-27T03:53:47.990Z,99265.88
2022-09-27T03:58:50.160Z,99267.34
2022-09-27T04:03:52.990Z,99269.84
2022-09-27T04:09:07.342Z,99279.13
2022-09-27T04:14:40.446Z,99268.44
2022-09-27T04:20:12.002Z,99280.59
2022-09-27T04:25:16.836Z,99278.13
2022-09-27T04:30:20.217Z,99281.59
2022-09-27T04:35:52.486Z,99278.13
2022-09-27T04:40:54.377Z,99270.31
2022-09-27T04:45:57.863Z,99269.06
2022-09-27T04:51:02.424Z,99281.41
2022-09-27T04:56:07.016Z,99277.25
2022-09-27T05:01:13.735Z,99276.88
2022-09-27T05:06:15.692Z,99283.03
2022-09-27T05:11:22.386Z,99283.25
2022-09-27T05:16:42.723Z,99285.94
2022-09-27T05:22:03.448Z,99298.69
2022-09-27T05:27:18.515Z,99297.88
2022-09-27T05:32:29.776Z,99305.03
2022-09-27T05:37:58.293Z,99311.03
2022-09-27T05:43:06.751Z,99314.75
2022-09-27T05:48:10.338Z,99307.16
2022-09-27T05:53:21.316Z,99310.06
2022-09-27T05:58:26.221Z,99318.28
2022-09-27T06:03:43.591Z,99331.19
2022-09-27T06:09:10.894Z,99312.50
2022-09-27T06:14:13.945Z,99301.22
2022-09-27T06:19:37.071Z,99319.50
2022-09-27T06:24:39.094Z,99314.75
2022-09-27T06:29:50.024Z,99323.16
2022-09-27T06:35:09.925Z,99322.53
2022-09-27T06:40:16.760Z,99341.44
2022-09-27T06:45:38.485Z,99342.84
2022-09-27T06:50:58.615Z,99343.47
2022-09-27T06:56:05.241Z,99355.72
2022-09-27T07:01:20.994Z,99368.88
2022-09-27T07:06:43.741Z,99357.53
2022-09-27T07:12:00.253Z,99368.03
2022-09-27T07:17:07.270Z,99354.88
2022-09-27T07:22:15.507Z,99368.44
2022-09-27T07:27:20.594Z,99364.72
2022-09-27T07:32:29.554Z,99378.22
2022-09-27T07:37:35.202Z,99380.84
2022-09-27T07:42:41.162Z,99393.97
2022-09-27T07:47:48.752Z,99392.34
2022-09-27T07:53:05.744Z,99390.69
2022-09-27T07:58:16.687Z,99386.00
2022-09-27T08:03:18.963Z,99396.28
2022-09-27T08:08:22.321Z,99387.03
2022-09-27T08:13:25.988Z,99398.09
2022-09-27T08:18:28.673Z,99412.13
2022-09-27T08:23:37.404Z,99417.47
2022-09-27T08:29:01.904Z,99416.66
2022-09-27T08:34:09.004Z,99425.25
2022-09-27T08:39:11.014Z,99429.13
2022-09-27T08:44:39.820Z,99420.44
2022-09-27T08:49:56.451Z,99426.44
2022-09-27T08:55:05.044Z,99437.28
2022-09-27T09:00:13.104Z,99449.59
2022-09-27T09:05:36.261Z,99459.69
2022-09-27T09:11:18.423Z,99465.03
2022-09-27T09:16:29.094Z,99464.00
2022-09-27T09:21:41.107Z,99461.50
2022-09-27T09:27:11.073Z,99457.13
2022-09-27T09:32:17.515Z,99466.19
2022-09-27T09:37:49.079Z,99467.97
2022-09-27T09:43:22.933Z,99481.81
2022-09-27T09:48:46.978Z,99492.75
2022-09-27T09:53:56.192Z,99489.97
2022-09-27T09:59:47.895Z,99488.78
2022-09-27T10:04:52.703Z,99477.94
2022-09-27T10:09:59.831Z,99476.50
2022-09-27T10:15:29.071Z,99478.75
2022-09-27T10:20:34.102Z,99470.28
2022-09-27T10:25:46.395Z,99472.94
2022-09-27T10:31:12.488Z,99470.59
2022-09-27T10:36:32.420Z,99467.72
2022-09-27T10:41:36.928Z,99471.44
2022-09-27T10:46:46.502Z,99470.22
2022-09-27T10:52:25.079Z,99468.81
2022-09-27T10:57:28.726Z,99468.09
2022-09-27T11:02:36.204Z,99474.31
2022-09-27T11:07:56.503Z,99474.75
2022-09-27T11:13:23.415Z,99481.69
2022-09-27T11:18:46.047Z,99502.41
2022-09-27T11:24:18.148Z,99509.53
2022-09-27T11:29:25.961Z,99509.31
2022-09-27T11:35:01.481Z,99507.41
2022-09-27T11:40:17.338Z,99501.84
2022-09-27T11:45:56.280Z,99509.84
2022-09-27T11:51:08.742Z,99508.75
2022-09-27T11:56:34.793Z,99515.91
2022-09-27T12:01:57.905Z,99515.00
2022-09-27T12:07:14.220Z,99505.91
2022-09-27T12:12:24.186Z,99505.16
2022-09-27T12:17:42.853Z,99498.72
2022-09-27T12:23:36.655Z,99503.53
2022-09-27T12:29:00.679Z,99512.03
2022-09-27T12:34:20.202Z,99517.09
2022-09-27T12:39:27.000Z,99514.03
2022-09-27T12:44:42.105Z,99523.38
2022-09-27T12:50:01.417Z,99532.41
2022-09-27T12:55:22.267Z,99538.50
2022-09-27T13:00:38.274Z,99537.13
2022-09-27T13:05:40.125Z,99541.53
2022-09-27T13:10:53.390Z,99540.66
2022-09-27T13:16:03.318Z,99525.50
2022-09-27T13:21:10.804Z,99536.56
2022-09-27T13:26:34.561Z,99533.47
2022-09-27T13:31:54.652Z,99540.78
2022-09-27T13:37:36.487Z,99542.13
2022-09-27T13:43:17.760Z,99545.53
2022-09-27T13:48:37.648Z,99556.31
2022-09-27T13:53:46.710Z,99541.91
2022-09-27T13:59:01.685Z,99561.63
2022-09-27T14:04:20.810Z,99554.75
2022-09-27T14:09:38.817Z,99556.72
2022-09-27T14:14:55.870Z,99555.81
2022-09-27T14:19:58.276Z,99551.78
2022-09-27T14:25:02.280Z,99551.78
2022-09-27T14:30:20.119Z,99546.69
2022-09-27T14:35:47.852Z,99558.97
2022-09-27T14:40:53.207Z,99557.78
2022-09-27T14:46:03.143Z,99565.75
2022-09-27T14:51:14.569Z,99559.22
2022-09-27T14:56:20.212Z,99569.53
2022-09-27T15:01:23.201Z,99575.50
2022-09-27T15:06:25.877Z,99565.66
2022-09-27T15:11:29.974Z,99571.47
2022-09-27T15:16:34.394Z,99575.69
2022-09-27T15:21:39.112Z,99568.22
2022-09-27T15:26:47.142Z,99575.66
2022-09-27T15:32:04.074Z,99582.03
2022-09-27T15:37:09.165Z,99591.25
2022-09-27T15:42:17.773Z,99585.59
2022-09-27T15:47:32.019Z,99588.00
2022-09-27T15:52:42.943Z,99587.59
2022-09-27T15:57:49.076Z,99602.75
2022-09-27T16:02:55.679Z,99600.06
2022-09-27T16:07:59.246Z,99613.03
2022-09-27T16:13:00.962Z,99610.34
2022-09-27T16:18:06.653Z,99610.31
2022-09-27T16:23:08.433Z,99608.03
2022-09-27T16:28:12.924Z,99609.53
2022-09-27T16:33:14.642Z,99606.59
2022-09-27T16:38:20.415Z,99610.53
2022-09-27T16:43:27.397Z,99607.16
2022-09-27T16:48:29.124Z,99608.69
2022-09-27T16:53:31.587Z,99608.56
2022-09-27T16:58:33.347Z,99616.19
2022-09-27T17:03:38.113Z,99608.41
2022-09-27T17:08:39.958Z,99609.25
2022-09-27T17:13:49.305Z,99607.59
2022-09-27T17:18:53.903Z,99615.66
2022-09-27T17:23:56.722Z,99615.69
2022-09-27T17:29:00.924Z,99611.97
2022-09-27T17:34:06.121Z,99615.69
2022-09-27T17:39:12.554Z,99617.59
2022-09-27T17:44:16.252Z,99620.47
2022-09-27T17:49:36.725Z,99617.25
2022-09-27T17:54:40.617Z,99621.34
2022-09-27T17:59:44.659Z,99629.41
2022-09-27T18:04:46.620Z,99629.63
2022-09-27T18:09:51.637Z,99618.31
2022-09-27T18:15:12.792Z,99632.09
2022-09-27T18:20:14.645Z,99622.44
2022-09-27T18:25:22.101Z,99630.25
2022-09-27T18:30:23.954Z,99630.88
2022-09-27T18:35:28.584Z,99639.50
2022-09-27T18:40:54.555Z,99635.34
2022-09-27T18:45:53.115Z,99631.69
2022-09-27T18:50:54.931Z,99630.03
2022-09-27T18:55:56.816Z,99635.16
2022-09-27T19:01:02.615Z,99635.34
2022-09-27T19:06:22.335Z,99636.16
2022-09-27T19:11:25.690Z,99630.63
2022-09-27T19:16:34.171Z,99637.19
2022-09-27T19:21:35.976Z,99638.00
2022-09-27T19:26:38.499Z,99644.34
2022-09-27T19:31:41.665Z,99639.81
2022-09-27T19:36:45.922Z,99638.56
2022-09-27T19:41:52.444Z,99637.97
2022-09-27T19:46:57.180Z,99645.53
2022-09-27T19:52:01.484Z,99640.19
2022-09-27T19:57:03.356Z,99638.38
2022-09-27T20:02:05.335Z,99636.28
2022-09-27T20:07:11.859Z,99635.06
2022-09-27T20:12:13.641Z,99636.06
2022-09-27T20:17:17.675Z,99638.09
2022-09-27T20:22:19.422Z,99633.59
2022-09-27T20:27:24.804Z,99633.41
2022-09-27T20:32:28.101Z,99629.28
2022-09-27T20:37:31.081Z,99632.78
2022-09-27T20:42:32.888Z,99630.31
2022-09-27T20:47:34.710Z,99627.84
2022-09-27T20:52:36.458Z,99635.41
2022-09-27T20:57:56.261Z,99633.78
2022-09-27T21:02:58.935Z,99633.78
2022-09-27T21:08:03.091Z,99634.75
2022-09-27T21:13:05.485Z,99628.78
2022-09-27T21:18:07.148Z,99628.22
2022-09-27T21:23:10.902Z,99627.41
2022-09-27T21:28:15.813Z,99625.72
2022-09-27T21:33:19.706Z,99630.44
2022-09-27T21:38:26.761Z,99632.88
2022-09-27T21:43:33.040Z,99621.16
2022-09-27T21:48:36.667Z,99631.19
2022-09-27T21:53:39.842Z,99637.13
2022-09-27T21:58:44.533Z,99630.94
2022-09-27T22:03:49.861Z,99628.47
2022-09-27T22:08:54.635Z,99623.53
2022-09-27T22:14:01.509Z,99627.41
2022-09-27T22:19:05.892Z,99634.16
2022-09-27T22:24:14.140Z,99632.72
2022-09-27T22:29:18.692Z,99635.97
2022-09-27T22:34:29.164Z,99632.22
2022-09-27T22:39:31.072Z,99633.06
2022-09-27T22:44:47.355Z,99625.69
2022-09-27T22:49:57.543Z,99631.56
2022-09-27T22:55:00.219Z,99621.31
2022-09-27T23:00:07.584Z,99619.88
2022-09-27T23:05:11.947Z,99618.78
2022-09-27T23:10:16.367Z,99624.06
2022-09-27T23:15:18.921Z,99624.47
2022-09-27T23:20:23.643Z,99624.25
2022-09-27T23:25:32.675Z,99621.97
2022-09-27T23:30:37.722Z,99623.81
2022-09-27T23:35:41.728Z,99619.88
2022-09-27T23:40:44.308Z,99613.47
2022-09-27T23:45:46.051Z,99619.78
2022-09-27T23:50:48.338Z,99614.00
2022-09-27T23:56:14.260Z,99605.97
